Overview Statistics Trail Chart Weather Telemetry Raw packets
 

This is the latest recevied weather packets stored in our database for station/object NT9G. If no packets are shown the sender has not sent any weather packets the latest 10 day(s).

<< 101 102 103 104 105 >>
Time Temp. Humidity Pressure Rain* Wind** Luminosity Snow
1777024150 17.78° C 80% 1004.5 hPa 0.25 mm - - -
1777023850 17.78° C 81% 1004.5 hPa 0.25 mm - - -
1777023550 17.78° C 83% 1004.6 hPa 0.25 mm - - -
1777023249 17.78° C 85% 1004.9 hPa 0.25 mm - - -
1777022949 17.78° C 86% 1005 hPa 0.25 mm - - -
1777022648 17.78° C 85% 1005.1 hPa 0.25 mm - - -
1777022348 18.33° C 82% 1004.9 hPa 0.25 mm - - -
1777022048 18.33° C 79% 1004.8 hPa 0.25 mm - - -
1777021748 18.89° C 75% 1005.2 hPa 0 mm - - -
1777021447 20° C 73% 1005.3 hPa 0 mm - - -
1777021147 20.56° C 72% 1004.9 hPa 0 mm - - -
1777020847 21.11° C 67% 1004.5 hPa 0 mm - - -
1777020546 20.56° C 66% 1004.2 hPa 0 mm - - -
1777020246 20.56° C 66% 1004.1 hPa 0 mm - - -
1777019946 20.56° C 66% 1003.9 hPa 0 mm - - -
1777019646 20.56° C 66% 1003.8 hPa 0 mm - - -
1777019345 20.56° C 65% 1003.9 hPa 0 mm - - -
1777019045 20.56° C 65% 1003.9 hPa 0 mm - - -
1777018745 20.56° C 65% 1004.1 hPa 0 mm - - -
1777018444 20.56° C 65% 1004.1 hPa 0 mm - - -
1777018144 20.56° C 64% 1004.1 hPa 0 mm - - -
1777017844 20.56° C 65% 1004.2 hPa 0 mm - - -
1777017544 20.56° C 64% 1004.2 hPa 0 mm - - -
1777017242 20.56° C 65% 1004.2 hPa 0 mm - - -
1777016942 20.56° C 64% 1004.3 hPa 0 mm - - -

* Rain since midnight (hover to see other rain measurements)
** Current wind speed in m/s (hover to see current wind gust speed)